Fairport, Missouri
Current Conditions -  °F | °C
As of 7:53 AM on Thursday 18 Dec 2014 (Local Time) from KSTJ Reporting Station
Light Snow Light Snow  
Wind Chill: 23°   Ceiling: 2300
Heat Index: 28°   Visibility: 1.2mi
Dew Point: 26°   Wind: 5mph
Humidity: 92%   Direction: 70°ENE
Pressure: 30.25"   Gusts: NA
Location:  39.99°N, 94.35°W
Report Text: KSTJ 181353Z 07004KT 1 1/4SM -SN BR FEW005 OVC023 M02/M03 A3025 RMK AO2 SLP253 P0002 T10221033
Loading
Personal Weather Stations






























Interactive Weather Map New forecast layout! Learn more

10-Day Weather Forecast

Advertisements
Track Severe Weather on mobile